createdAt,value
2023-03-27T00:02:26.312Z,33.87
2023-03-27T00:04:54.422Z,35.44
2023-03-27T00:07:21.880Z,36.45
2023-03-27T00:09:48.703Z,37.52
2023-03-27T00:12:15.819Z,38.64
2023-03-27T00:14:42.571Z,37.78
2023-03-27T00:17:09.375Z,36.22
2023-03-27T00:19:36.338Z,35.42
2023-03-27T00:22:03.673Z,35.22
2023-03-27T00:24:30.556Z,34.90
2023-03-27T00:26:58.145Z,34.81
2023-03-27T00:29:24.969Z,34.85
2023-03-27T00:31:52.000Z,34.83
2023-03-27T00:34:18.761Z,34.42
2023-03-27T00:36:50.915Z,34.31
2023-03-27T00:39:19.096Z,34.24
2023-03-27T00:41:46.014Z,34.16
2023-03-27T00:44:13.799Z,34.06
2023-03-27T00:46:40.669Z,34.08
2023-03-27T00:49:08.109Z,33.84
2023-03-27T00:51:34.956Z,33.68
2023-03-27T00:54:01.821Z,33.75
2023-03-27T00:56:28.598Z,35.85
2023-03-27T00:58:55.480Z,35.97
2023-03-27T01:01:22.268Z,37.68
2023-03-27T01:03:49.284Z,37.59
2023-03-27T01:06:16.798Z,36.66
2023-03-27T01:08:43.631Z,35.40
2023-03-27T01:11:10.618Z,35.24
2023-03-27T01:13:37.380Z,34.99
2023-03-27T01:16:04.326Z,34.75
2023-03-27T01:18:31.088Z,34.90
2023-03-27T01:20:58.487Z,34.46
2023-03-27T01:23:35.855Z,34.35
2023-03-27T01:26:13.466Z,34.55
2023-03-27T01:28:41.008Z,34.03
2023-03-27T01:31:07.781Z,34.17
2023-03-27T01:33:34.550Z,34.02
2023-03-27T01:36:01.591Z,33.84
2023-03-27T01:38:28.556Z,34.02
2023-03-27T01:40:55.570Z,34.01
2023-03-27T01:43:22.499Z,35.08
2023-03-27T01:45:49.243Z,35.60
2023-03-27T01:48:16.797Z,37.06
2023-03-27T01:50:43.588Z,37.62
2023-03-27T01:53:10.516Z,37.01
2023-03-27T01:55:37.256Z,35.78
2023-03-27T01:58:04.953Z,35.55
2023-03-27T02:00:51.958Z,35.10
2023-03-27T02:03:19.070Z,34.75
2023-03-27T02:05:46.015Z,34.75
2023-03-27T02:08:13.415Z,34.27
2023-03-27T02:10:40.731Z,34.19
2023-03-27T02:13:07.475Z,34.23
2023-03-27T02:15:34.220Z,34.34
2023-03-27T02:18:07.992Z,34.25
2023-03-27T02:20:34.762Z,34.39
2023-03-27T02:23:01.833Z,34.15
2023-03-27T02:25:28.710Z,33.83
2023-03-27T02:27:55.523Z,33.97
2023-03-27T02:30:22.326Z,34.17
2023-03-27T02:32:49.175Z,35.72
2023-03-27T02:35:17.455Z,35.33
2023-03-27T02:37:44.220Z,36.32
2023-03-27T02:40:12.077Z,37.35
2023-03-27T02:42:38.819Z,37.79
2023-03-27T02:45:05.600Z,37.25
2023-03-27T02:47:32.461Z,35.96
2023-03-27T02:49:59.342Z,35.48
2023-03-27T02:52:26.539Z,35.13
2023-03-27T02:54:53.302Z,35.13
2023-03-27T02:57:20.359Z,34.85
2023-03-27T02:59:47.122Z,34.65
2023-03-27T03:02:13.941Z,34.36
2023-03-27T03:04:41.800Z,34.08
2023-03-27T03:07:08.650Z,34.41
2023-03-27T03:09:40.377Z,33.99
2023-03-27T03:12:07.603Z,33.95
2023-03-27T03:14:34.389Z,33.96
2023-03-27T03:17:01.322Z,34.08
2023-03-27T03:19:28.096Z,34.16
2023-03-27T03:21:55.499Z,33.87
2023-03-27T03:24:22.355Z,33.65
2023-03-27T03:26:52.258Z,35.20
2023-03-27T03:29:19.151Z,35.35
2023-03-27T03:31:46.000Z,36.51
2023-03-27T03:34:12.808Z,37.54
2023-03-27T03:36:41.789Z,38.18
2023-03-27T03:39:08.590Z,37.45
2023-03-27T03:41:35.829Z,36.16
2023-03-27T03:44:02.594Z,35.58
2023-03-27T03:46:29.455Z,35.42
2023-03-27T03:48:58.961Z,35.16
2023-03-27T03:51:26.109Z,34.70
2023-03-27T03:53:52.926Z,34.46
2023-03-27T03:56:19.693Z,34.44
2023-03-27T03:58:46.441Z,34.18
2023-03-27T04:01:13.525Z,34.40
2023-03-27T04:03:41.374Z,34.37
2023-03-27T04:06:08.212Z,34.17
2023-03-27T04:08:35.011Z,34.16
2023-03-27T04:11:01.878Z,33.96
2023-03-27T04:13:28.634Z,33.84
2023-03-27T04:15:55.554Z,33.99
2023-03-27T04:18:24.511Z,33.84
2023-03-27T04:20:54.264Z,33.74
2023-03-27T04:23:21.221Z,34.26
2023-03-27T04:25:48.015Z,35.11
2023-03-27T04:28:16.577Z,34.86
2023-03-27T04:30:44.033Z,35.66
2023-03-27T04:33:18.114Z,36.37
2023-03-27T04:35:45.196Z,36.95
2023-03-27T04:38:12.432Z,37.38
2023-03-27T04:40:39.220Z,37.75
2023-03-27T04:43:05.982Z,37.53
2023-03-27T04:45:33.578Z,37.86
2023-03-27T04:48:00.364Z,37.73
2023-03-27T04:50:27.220Z,37.86
2023-03-27T04:52:58.515Z,38.06
2023-03-27T04:55:26.474Z,38.26
2023-03-27T04:57:53.226Z,36.28
2023-03-27T05:00:20.012Z,35.98
2023-03-27T05:02:47.526Z,35.19
2023-03-27T05:05:14.472Z,35.37
2023-03-27T05:07:41.218Z,35.07
2023-03-27T05:10:08.034Z,34.77
2023-03-27T05:12:34.821Z,34.69
2023-03-27T05:15:05.915Z,34.30
2023-03-27T05:17:32.847Z,34.33
2023-03-27T05:19:59.703Z,34.08
2023-03-27T05:22:26.474Z,34.07
2023-03-27T05:24:53.249Z,34.23
2023-03-27T05:27:20.140Z,33.99
2023-03-27T05:29:47.779Z,33.94
2023-03-27T05:32:14.642Z,33.90
2023-03-27T05:34:42.256Z,33.99
2023-03-27T05:37:09.036Z,34.05
2023-03-27T05:39:36.576Z,33.98
2023-03-27T05:42:03.405Z,33.95
2023-03-27T05:44:30.161Z,33.66
2023-03-27T05:46:57.144Z,33.60
2023-03-27T05:49:24.054Z,33.67
2023-03-27T05:51:50.804Z,33.31
2023-03-27T05:54:17.553Z,33.46
2023-03-27T05:56:44.380Z,33.54
2023-03-27T05:59:11.694Z,33.66
2023-03-27T06:01:39.730Z,34.63
2023-03-27T06:04:09.062Z,34.98
2023-03-27T06:06:36.157Z,35.96
2023-03-27T06:09:03.672Z,36.12
2023-03-27T06:11:30.727Z,36.50
2023-03-27T06:13:58.746Z,37.03
2023-03-27T06:16:25.755Z,36.04
2023-03-27T06:18:53.004Z,35.50
2023-03-27T06:21:19.849Z,35.03
2023-03-27T06:23:47.624Z,34.89
2023-03-27T06:26:15.378Z,34.39
2023-03-27T06:28:42.432Z,34.45
2023-03-27T06:31:09.318Z,34.37
2023-03-27T06:33:36.134Z,34.26
2023-03-27T06:36:03.027Z,33.80
2023-03-27T06:38:31.924Z,33.92
2023-03-27T06:40:59.716Z,33.68
2023-03-27T06:43:26.493Z,33.85
2023-03-27T06:45:53.241Z,33.82
2023-03-27T06:48:22.095Z,33.65
2023-03-27T06:50:49.230Z,33.86
2023-03-27T06:53:26.737Z,33.74
2023-03-27T06:55:54.608Z,33.93
2023-03-27T06:58:21.649Z,35.19
2023-03-27T07:00:49.667Z,34.80
2023-03-27T07:03:17.610Z,35.75
2023-03-27T07:05:44.503Z,37.21
2023-03-27T07:08:21.716Z,37.52
2023-03-27T07:10:59.974Z,37.88
2023-03-27T07:13:34.601Z,38.27
2023-03-27T07:16:01.449Z,38.54
2023-03-27T07:18:28.258Z,38.12
2023-03-27T07:20:55.413Z,36.72
2023-03-27T07:23:22.432Z,35.40
2023-03-27T07:25:50.033Z,35.29
2023-03-27T07:28:18.225Z,35.13
2023-03-27T07:30:45.059Z,34.80
2023-03-27T07:33:12.509Z,34.43
2023-03-27T07:35:39.592Z,34.54
2023-03-27T07:38:06.564Z,34.37
2023-03-27T07:40:39.865Z,34.18
2023-03-27T07:43:07.203Z,34.22
2023-03-27T07:45:34.053Z,34.10
2023-03-27T07:48:01.797Z,33.90
2023-03-27T07:50:28.673Z,33.83
2023-03-27T07:52:55.436Z,33.58
2023-03-27T07:55:22.943Z,33.75
2023-03-27T07:58:00.544Z,33.92
2023-03-27T08:00:29.506Z,33.61
2023-03-27T08:02:56.381Z,33.67
2023-03-27T08:05:23.194Z,33.48
2023-03-27T08:07:50.722Z,33.40
2023-03-27T08:10:17.542Z,33.33
2023-03-27T08:12:44.342Z,34.71
2023-03-27T08:15:11.100Z,35.30
2023-03-27T08:17:38.014Z,35.72
2023-03-27T08:20:08.957Z,36.68
2023-03-27T08:22:36.821Z,37.20
2023-03-27T08:25:04.632Z,36.87
2023-03-27T08:27:32.049Z,37.45
2023-03-27T08:29:58.818Z,36.66
2023-03-27T08:32:25.679Z,35.69
2023-03-27T08:34:52.529Z,35.19
2023-03-27T08:37:19.345Z,34.78
2023-03-27T08:39:46.746Z,34.49
2023-03-27T08:42:13.768Z,34.59
2023-03-27T08:44:40.710Z,34.26
2023-03-27T08:47:07.500Z,34.05
2023-03-27T08:49:34.259Z,33.87
2023-03-27T08:52:01.082Z,33.78
2023-03-27T08:54:28.040Z,33.86
2023-03-27T08:56:54.851Z,33.60
2023-03-27T08:59:21.610Z,33.82
2023-03-27T09:01:48.457Z,33.63
2023-03-27T09:04:15.248Z,33.50
2023-03-27T09:06:42.332Z,33.87
2023-03-27T09:09:09.087Z,33.63
2023-03-27T09:11:36.998Z,35.23
2023-03-27T09:14:03.957Z,35.42
2023-03-27T09:16:30.781Z,36.53
2023-03-27T09:18:57.658Z,36.97
2023-03-27T09:21:24.427Z,37.80
2023-03-27T09:23:53.945Z,37.83
2023-03-27T09:26:20.772Z,37.99
2023-03-27T09:28:53.589Z,38.03
2023-03-27T09:31:20.464Z,38.31
2023-03-27T09:33:47.675Z,37.57
2023-03-27T09:36:14.431Z,36.23
2023-03-27T09:38:42.047Z,35.77
2023-03-27T09:41:08.844Z,35.14
2023-03-27T09:43:35.585Z,34.98
2023-03-27T09:46:02.401Z,34.96
2023-03-27T09:48:29.254Z,34.76
2023-03-27T09:50:56.592Z,34.52
2023-03-27T09:53:25.069Z,34.07
2023-03-27T09:55:52.763Z,34.17
2023-03-27T09:58:20.440Z,34.09
2023-03-27T10:00:48.016Z,34.09
2023-03-27T10:03:14.953Z,34.16
2023-03-27T10:05:43.705Z,33.72
2023-03-27T10:08:10.472Z,34.00
2023-03-27T10:10:42.308Z,33.88
2023-03-27T10:13:09.063Z,33.94
2023-03-27T10:15:36.272Z,33.66
2023-03-27T10:18:04.438Z,33.62
2023-03-27T10:20:31.291Z,33.52
2023-03-27T10:22:58.062Z,33.32
2023-03-27T10:25:24.814Z,32.86
2023-03-27T10:27:51.663Z,32.90
2023-03-27T10:30:18.491Z,33.56
2023-03-27T10:32:45.335Z,35.04
2023-03-27T10:35:14.438Z,34.90
2023-03-27T10:37:41.376Z,36.39
2023-03-27T10:40:17.115Z,36.76
2023-03-27T10:42:44.176Z,35.20
2023-03-27T10:45:10.952Z,34.40
2023-03-27T10:47:37.706Z,33.80
2023-03-27T10:50:04.656Z,33.86
2023-03-27T10:52:31.547Z,33.55
2023-03-27T10:54:58.295Z,33.46
2023-03-27T10:57:27.196Z,33.29
2023-03-27T10:59:53.964Z,33.05
2023-03-27T11:02:20.718Z,33.02
2023-03-27T11:04:47.534Z,32.92
2023-03-27T11:07:16.307Z,33.08
2023-03-27T11:09:43.663Z,33.20
2023-03-27T11:12:10.456Z,32.93
2023-03-27T11:14:37.190Z,32.91
2023-03-27T11:17:04.182Z,32.82
2023-03-27T11:19:31.312Z,35.19
2023-03-27T11:21:58.416Z,37.04
2023-03-27T11:24:25.152Z,36.51
2023-03-27T11:26:51.920Z,36.99
2023-03-27T11:29:20.306Z,36.67
2023-03-27T11:31:47.149Z,36.82
2023-03-27T11:34:14.407Z,36.76
2023-03-27T11:36:55.881Z,35.67
2023-03-27T11:39:22.837Z,34.70
2023-03-27T11:41:49.618Z,34.50
2023-03-27T11:44:16.386Z,33.99
2023-03-27T11:46:43.485Z,33.82
2023-03-27T11:49:10.738Z,33.80
2023-03-27T11:51:37.475Z,33.71
2023-03-27T11:54:05.295Z,33.58
2023-03-27T11:56:32.100Z,33.59
2023-03-27T11:58:58.876Z,33.41
2023-03-27T12:01:26.894Z,33.46
2023-03-27T12:03:53.700Z,33.47
2023-03-27T12:06:20.669Z,33.01
2023-03-27T12:08:48.034Z,33.44
2023-03-27T12:11:14.799Z,33.26
2023-03-27T12:13:42.646Z,33.11
2023-03-27T12:16:09.696Z,33.13
2023-03-27T12:18:36.938Z,32.82
2023-03-27T12:21:04.609Z,33.37
2023-03-27T12:23:31.413Z,34.68
2023-03-27T12:25:58.147Z,34.50
2023-03-27T12:28:24.940Z,35.34
2023-03-27T12:30:51.802Z,36.45
2023-03-27T12:33:18.596Z,36.78
2023-03-27T12:35:46.938Z,37.02
2023-03-27T12:38:14.037Z,37.04
2023-03-27T12:40:40.960Z,35.98
2023-03-27T12:43:07.704Z,35.19
2023-03-27T12:45:38.734Z,34.64
2023-03-27T12:48:09.715Z,34.47
2023-03-27T12:50:36.796Z,34.25
2023-03-27T12:53:04.198Z,33.89
2023-03-27T12:55:31.056Z,33.82
2023-03-27T12:57:57.988Z,33.81
2023-03-27T13:00:25.492Z,33.82
2023-03-27T13:02:52.460Z,33.57
2023-03-27T13:05:26.743Z,33.61
2023-03-27T13:07:54.849Z,33.56
2023-03-27T13:10:21.684Z,33.33
2023-03-27T13:12:48.618Z,33.28
2023-03-27T13:15:15.343Z,33.34
2023-03-27T13:17:42.147Z,33.35
2023-03-27T13:20:09.989Z,33.09
2023-03-27T13:22:37.419Z,33.56
2023-03-27T13:25:04.215Z,36.22
2023-03-27T13:27:31.013Z,37.17
2023-03-27T13:29:57.776Z,38.25
2023-03-27T13:32:24.743Z,36.79
2023-03-27T13:34:51.570Z,35.13
2023-03-27T13:37:20.138Z,34.82
2023-03-27T13:39:47.154Z,34.61
2023-03-27T13:42:13.912Z,34.19
2023-03-27T13:44:40.812Z,34.38
2023-03-27T13:47:09.045Z,34.00
2023-03-27T13:49:37.226Z,33.99
2023-03-27T13:52:04.021Z,33.70
2023-03-27T13:54:30.969Z,33.79
2023-03-27T13:56:57.766Z,33.77
2023-03-27T13:59:27.866Z,33.40
2023-03-27T14:01:55.680Z,33.42
2023-03-27T14:04:22.487Z,33.49
2023-03-27T14:06:49.243Z,33.48
2023-03-27T14:09:16.241Z,33.67
2023-03-27T14:11:43.000Z,36.27
2023-03-27T14:14:09.757Z,37.73
2023-03-27T14:16:36.618Z,39.00
2023-03-27T14:19:03.414Z,38.00
2023-03-27T14:21:38.558Z,36.11
2023-03-27T14:24:06.057Z,35.62
2023-03-27T14:26:33.700Z,35.04
2023-03-27T14:29:00.888Z,34.79
2023-03-27T14:31:28.777Z,34.47
2023-03-27T14:33:56.086Z,34.19
2023-03-27T14:36:22.930Z,33.87
2023-03-27T14:38:49.704Z,33.95
2023-03-27T14:41:16.814Z,34.07
2023-03-27T14:43:43.560Z,33.99
2023-03-27T14:46:11.387Z,33.55
2023-03-27T14:48:38.706Z,33.90
2023-03-27T14:51:05.460Z,33.59
2023-03-27T14:53:36.171Z,33.35
2023-03-27T14:56:04.155Z,33.43
2023-03-27T14:58:30.904Z,33.43
2023-03-27T15:00:57.924Z,34.56
2023-03-27T15:03:26.030Z,35.17
2023-03-27T15:05:53.819Z,35.60
2023-03-27T15:08:22.232Z,35.88
2023-03-27T15:10:49.078Z,37.11
2023-03-27T15:13:15.896Z,37.54
2023-03-27T15:15:42.830Z,37.54
2023-03-27T15:18:10.699Z,38.21
2023-03-27T15:20:37.450Z,38.24
2023-03-27T15:23:04.233Z,38.61
2023-03-27T15:25:31.303Z,38.89
2023-03-27T15:27:58.841Z,39.00
2023-03-27T15:30:25.893Z,39.37
2023-03-27T15:32:53.080Z,39.88
2023-03-27T15:35:19.963Z,40.38
2023-03-27T15:37:46.757Z,40.44
2023-03-27T15:40:13.693Z,39.23
2023-03-27T15:42:40.511Z,37.71
2023-03-27T15:45:07.290Z,36.90
2023-03-27T15:47:34.299Z,35.80
2023-03-27T15:50:01.264Z,35.39
2023-03-27T15:52:28.035Z,35.34
2023-03-27T15:54:54.800Z,35.18
2023-03-27T15:57:21.661Z,35.03
2023-03-27T15:59:51.865Z,34.89
2023-03-27T16:02:20.452Z,34.62
2023-03-27T16:04:48.164Z,34.36
2023-03-27T16:07:14.977Z,34.51
2023-03-27T16:09:41.744Z,34.26
2023-03-27T16:12:08.510Z,34.19
2023-03-27T16:14:35.516Z,34.25
2023-03-27T16:17:02.273Z,34.04
2023-03-27T16:19:29.006Z,34.06
2023-03-27T16:21:55.951Z,34.03
2023-03-27T16:24:22.699Z,33.84
2023-03-27T16:26:49.456Z,33.79
2023-03-27T16:29:16.258Z,33.98
2023-03-27T16:31:43.077Z,33.99
2023-03-27T16:34:09.827Z,33.71
2023-03-27T16:36:37.446Z,33.70
2023-03-27T16:39:04.298Z,33.79
2023-03-27T16:41:31.367Z,33.82
2023-03-27T16:43:58.124Z,33.82
2023-03-27T16:46:24.988Z,33.71
2023-03-27T16:48:51.787Z,33.88
2023-03-27T16:51:19.019Z,33.71
2023-03-27T16:53:45.818Z,33.79
2023-03-27T16:56:12.560Z,33.38
2023-03-27T16:58:39.379Z,33.51
2023-03-27T17:01:06.599Z,33.53
2023-03-27T17:03:33.354Z,35.72
2023-03-27T17:06:00.701Z,35.83
2023-03-27T17:08:30.080Z,37.32
2023-03-27T17:10:56.828Z,36.67
2023-03-27T17:13:23.580Z,35.91
2023-03-27T17:15:51.054Z,35.27
2023-03-27T17:18:17.840Z,34.90
2023-03-27T17:20:44.599Z,34.76
2023-03-27T17:23:11.355Z,34.33
2023-03-27T17:25:38.094Z,34.27
2023-03-27T17:28:04.866Z,34.12
2023-03-27T17:30:40.968Z,34.10
2023-03-27T17:33:11.953Z,34.11
2023-03-27T17:35:39.107Z,33.84
2023-03-27T17:38:06.298Z,34.06
2023-03-27T17:40:33.068Z,34.05
2023-03-27T17:43:00.411Z,33.90
2023-03-27T17:45:27.206Z,33.87
2023-03-27T17:47:54.013Z,34.20
2023-03-27T17:50:21.049Z,35.85
2023-03-27T17:52:47.812Z,36.66
2023-03-27T17:55:14.668Z,38.12
2023-03-27T17:57:41.554Z,37.01
2023-03-27T18:00:09.371Z,36.15
2023-03-27T18:02:36.221Z,35.34
2023-03-27T18:05:03.008Z,35.10
2023-03-27T18:07:30.435Z,34.71
2023-03-27T18:09:57.204Z,34.55
2023-03-27T18:12:23.980Z,34.30
2023-03-27T18:14:50.773Z,34.41
2023-03-27T18:17:20.817Z,34.36
2023-03-27T18:19:47.622Z,33.89
2023-03-27T18:22:14.436Z,34.00
2023-03-27T18:24:41.387Z,33.95
2023-03-27T18:27:08.242Z,33.89
2023-03-27T18:29:35.151Z,33.61
2023-03-27T18:32:02.116Z,33.73
2023-03-27T18:34:28.982Z,33.72
2023-03-27T18:36:56.230Z,35.34
2023-03-27T18:39:23.048Z,35.46
2023-03-27T18:41:51.214Z,36.29
2023-03-27T18:44:18.413Z,36.86
2023-03-27T18:46:45.187Z,36.76
2023-03-27T18:49:23.833Z,36.04
2023-03-27T18:51:51.535Z,35.25
2023-03-27T18:54:18.276Z,35.13
2023-03-27T18:56:45.081Z,34.77
2023-03-27T18:59:11.855Z,34.52
2023-03-27T19:01:38.648Z,34.20
2023-03-27T19:04:05.451Z,34.43
2023-03-27T19:06:32.282Z,34.05
2023-03-27T19:08:59.427Z,34.21
2023-03-27T19:11:26.185Z,33.95
2023-03-27T19:13:52.944Z,33.92
2023-03-27T19:16:19.684Z,34.01
2023-03-27T19:18:46.429Z,33.71
2023-03-27T19:21:13.203Z,33.55
2023-03-27T19:23:39.954Z,33.82
2023-03-27T19:26:06.712Z,33.58
2023-03-27T19:28:33.482Z,35.40
2023-03-27T19:31:00.319Z,35.88
2023-03-27T19:33:27.976Z,37.39
2023-03-27T19:35:54.978Z,37.37
2023-03-27T19:38:21.737Z,36.22
2023-03-27T19:40:48.492Z,35.11
2023-03-27T19:43:17.864Z,34.83
2023-03-27T19:45:44.592Z,34.78
2023-03-27T19:48:12.653Z,34.14
2023-03-27T19:50:39.472Z,34.29
2023-03-27T19:53:09.031Z,34.12
2023-03-27T19:55:36.068Z,33.94
2023-03-27T19:58:02.914Z,33.88
2023-03-27T20:00:31.502Z,33.94
2023-03-27T20:02:59.401Z,33.90
2023-03-27T20:05:27.502Z,33.63
2023-03-27T20:07:54.264Z,33.46
2023-03-27T20:10:21.989Z,34.69
2023-03-27T20:12:48.744Z,35.95
2023-03-27T20:15:15.474Z,37.40
2023-03-27T20:17:42.786Z,38.46
2023-03-27T20:20:12.868Z,36.88
2023-03-27T20:22:50.452Z,35.22
2023-03-27T20:25:21.457Z,34.91
2023-03-27T20:27:48.227Z,34.40
2023-03-27T20:30:15.229Z,34.17
2023-03-27T20:32:42.103Z,34.39
2023-03-27T20:35:20.524Z,34.16
2023-03-27T20:37:50.142Z,33.85
2023-03-27T20:40:17.586Z,34.07
2023-03-27T20:42:47.457Z,33.88
2023-03-27T20:45:19.027Z,33.61
2023-03-27T20:47:47.091Z,33.86
2023-03-27T20:50:13.982Z,33.66
2023-03-27T20:52:41.610Z,33.62
2023-03-27T20:55:08.338Z,33.47
2023-03-27T20:57:36.181Z,33.27
2023-03-27T21:00:03.917Z,35.46
2023-03-27T21:02:30.737Z,35.37
2023-03-27T21:04:57.523Z,36.25
2023-03-27T21:07:24.318Z,37.18
2023-03-27T21:09:52.805Z,36.79
2023-03-27T21:12:19.549Z,36.06
2023-03-27T21:14:46.320Z,35.03
2023-03-27T21:17:13.101Z,34.93
2023-03-27T21:19:39.863Z,34.60
2023-03-27T21:22:06.849Z,34.21
2023-03-27T21:24:33.591Z,34.45
2023-03-27T21:27:00.558Z,34.08
2023-03-27T21:29:27.424Z,33.93
2023-03-27T21:31:54.254Z,33.84
2023-03-27T21:34:22.416Z,33.80
2023-03-27T21:36:49.197Z,33.41
2023-03-27T21:39:16.116Z,33.79
2023-03-27T21:41:42.999Z,33.48
2023-03-27T21:44:09.785Z,33.44
2023-03-27T21:46:36.525Z,33.56
2023-03-27T21:49:03.261Z,33.53
2023-03-27T21:51:30.192Z,34.68
2023-03-27T21:53:56.990Z,35.07
2023-03-27T21:56:23.780Z,36.00
2023-03-27T21:58:50.647Z,36.53
2023-03-27T22:01:17.908Z,36.98
2023-03-27T22:03:44.669Z,36.33
2023-03-27T22:06:13.429Z,35.83
2023-03-27T22:08:40.438Z,35.37
2023-03-27T22:11:07.227Z,34.94
2023-03-27T22:13:34.049Z,34.29
2023-03-27T22:16:01.196Z,34.29
2023-03-27T22:18:28.203Z,34.04
2023-03-27T22:20:55.146Z,34.05
2023-03-27T22:23:21.886Z,33.85
2023-03-27T22:25:48.643Z,33.69
2023-03-27T22:28:15.472Z,33.64
2023-03-27T22:30:42.193Z,33.89
2023-03-27T22:33:08.944Z,33.69
2023-03-27T22:35:35.804Z,33.41
2023-03-27T22:38:02.565Z,33.60
2023-03-27T22:40:29.370Z,33.16
2023-03-27T22:42:56.141Z,33.33
2023-03-27T22:45:22.878Z,35.36
2023-03-27T22:47:49.651Z,35.60
2023-03-27T22:50:16.442Z,36.64
2023-03-27T22:52:43.192Z,36.81
2023-03-27T22:55:10.095Z,37.48
2023-03-27T22:57:37.515Z,35.99
2023-03-27T23:00:04.249Z,35.28
2023-03-27T23:02:31.081Z,34.69
2023-03-27T23:04:58.018Z,34.25
2023-03-27T23:07:24.737Z,34.09
2023-03-27T23:09:51.492Z,33.98
2023-03-27T23:12:18.252Z,33.83
2023-03-27T23:14:45.187Z,33.92
2023-03-27T23:17:11.969Z,33.89
2023-03-27T23:19:38.869Z,33.82
2023-03-27T23:22:05.682Z,33.75
2023-03-27T23:24:32.522Z,33.44
2023-03-27T23:26:59.312Z,33.47
2023-03-27T23:29:26.071Z,33.22
2023-03-27T23:31:52.903Z,33.19
2023-03-27T23:34:19.757Z,33.18
2023-03-27T23:36:46.923Z,33.03
2023-03-27T23:39:13.666Z,34.32
2023-03-27T23:41:40.433Z,35.30
2023-03-27T23:44:07.190Z,35.37
2023-03-27T23:46:34.052Z,36.19
2023-03-27T23:49:00.842Z,36.82
2023-03-27T23:51:27.595Z,35.80
2023-03-27T23:53:54.330Z,35.60
2023-03-27T23:56:21.175Z,34.72
2023-03-27T23:58:47.974Z,34.43
